Time;durP1;ratioP1;P1;durP2;ratioP2;P2;SDS_P1;SDS_P2;PMS_P1;PMS_P2;Temp;Humidity;BMP_temperature;BMP_pressure;BME280_temperature;BME280_humidity;BME280_pressure;Samples;Min_cycle;Max_cycle;Signal;HPM_P1;HPM_P2
2022/07/24 00:00:15;;;;;;;34.15;26.13;;;;;;;14.72;97.16;101771.56;5112723;28;20106;-45
2022/07/24 00:02:41;;;;;;;35.65;26.40;;;;;;;14.75;97.12;101779.41;5112905;28;20027;-44
2022/07/24 00:05:07;;;;;;;35.92;26.17;;;;;;;14.69;97.13;101775.78;5113482;28;20031;-45
2022/07/24 00:07:34;;;;;;;36.80;27.35;;;;;;;14.68;97.38;101774.91;5113287;28;20052;-42
2022/07/24 00:10:00;;;;;;;34.72;27.70;;;;;;;14.65;97.42;101773.09;5113266;28;20356;-42
2022/07/24 00:12:25;;;;;;;38.72;27.10;;;;;;;14.65;97.48;101772.22;5113182;28;20051;-44
2022/07/24 00:14:51;;;;;;;35.13;26.65;;;;;;;14.66;97.83;101768.78;5112858;28;20429;-43
2022/07/24 00:17:16;;;;;;;36.13;27.13;;;;;;;14.63;97.87;101768.69;5112997;28;20114;-46
2022/07/24 00:19:41;;;;;;;36.00;26.92;;;;;;;14.67;98.26;101770.53;5113490;28;20028;-43
2022/07/24 00:22:06;;;;;;;34.08;25.95;;;;;;;14.66;97.92;101763.59;5112561;28;20455;-45
2022/07/24 00:24:32;;;;;;;34.47;26.65;;;;;;;14.70;98.32;101760.25;5113345;28;20031;-45
2022/07/24 00:26:57;;;;;;;36.00;25.85;;;;;;;14.68;97.80;101764.53;5113429;28;20023;-46
2022/07/24 00:29:22;;;;;;;36.60;25.95;;;;;;;14.64;97.84;101760.97;5112480;28;20023;-45
2022/07/24 00:31:47;;;;;;;36.92;25.98;;;;;;;14.65;97.63;101767.91;5113449;28;20020;-46
2022/07/24 00:34:13;;;;;;;36.75;25.42;;;;;;;14.66;97.31;101761.00;5113072;28;20027;-47
2022/07/24 00:36:41;;;;;;;33.00;23.88;;;;;;;14.62;97.41;101766.91;5112446;28;20070;-47
2022/07/24 00:39:07;;;;;;;38.22;26.10;;;;;;;14.62;97.52;101766.91;5113148;28;20042;-46
2022/07/24 00:41:32;;;;;;;33.75;24.92;;;;;;;14.60;97.19;101768.56;5113263;28;20410;-44
2022/07/24 00:44:09;;;;;;;36.15;24.80;;;;;;;14.58;97.10;101767.66;5112587;28;20027;-46
2022/07/24 00:46:37;;;;;;;34.05;24.50;;;;;;;14.52;97.29;101770.94;5113001;28;20516;-42
2022/07/24 00:49:08;;;;;;;34.33;25.60;;;;;;;14.46;97.61;101776.84;5112961;28;20051;-46
2022/07/24 00:51:34;;;;;;;33.22;25.00;;;;;;;14.50;97.26;101770.03;5112453;28;20050;-43
2022/07/24 00:54:03;;;;;;;35.25;25.88;;;;;;;14.49;97.66;101765.69;5113017;28;20459;-45
2022/07/24 00:56:29;;;;;;;38.00;27.58;;;;;;;14.55;97.94;101767.56;5112868;28;20371;-46
2022/07/24 00:58:54;;;;;;;31.98;24.85;;;;;;;14.49;97.75;101761.38;5112687;28;20491;-46
2022/07/24 01:01:19;;;;;;;34.42;25.23;;;;;;;14.50;97.53;101759.69;5112677;28;20036;-46
2022/07/24 01:03:45;;;;;;;33.53;24.98;;;;;;;14.48;97.53;101764.78;5112977;28;20462;-43
2022/07/24 01:06:10;;;;;;;34.65;26.40;;;;;;;14.49;97.33;101763.97;5112311;28;20027;-47
2022/07/24 01:08:36;;;;;;;33.83;25.13;;;;;;;14.63;97.67;101763.50;5112985;28;20073;-45
2022/07/24 01:11:02;;;;;;;36.42;26.40;;;;;;;14.61;97.35;101757.38;5112598;28;20522;-47
2022/07/24 01:13:30;;;;;;;34.70;24.23;;;;;;;14.55;97.14;101752.91;5116876;28;20032;-44
2022/07/24 01:15:56;;;;;;;36.15;24.75;;;;;;;14.59;97.26;101751.25;5116910;28;20098;-46
2022/07/24 01:18:21;;;;;;;38.03;25.55;;;;;;;14.56;96.93;101756.34;5115673;28;20378;-46
2022/07/24 01:20:47;;;;;;;38.67;25.33;;;;;;;14.59;96.63;101751.25;5116768;28;20463;-45
2022/07/24 01:23:13;;;;;;;35.17;25.10;;;;;;;14.60;97.03;101753.00;5116723;28;20027;-43
2022/07/24 01:25:39;;;;;;;32.80;25.25;;;;;;;14.52;96.99;101751.94;5116118;28;20097;-47
2022/07/24 01:28:04;;;;;;;33.83;24.60;;;;;;;14.53;96.85;101740.72;5116714;28;20096;-46
2022/07/24 01:30:30;;;;;;;36.15;25.20;;;;;;;14.54;96.98;101743.34;5116464;28;20030;-47
2022/07/24 01:32:55;;;;;;;34.13;25.00;;;;;;;14.51;96.99;101738.06;5115823;28;20063;-45
2022/07/24 01:35:20;;;;;;;33.17;24.48;;;;;;;14.54;97.00;101737.25;5116232;28;20027;-46
2022/07/24 01:37:45;;;;;;;36.70;25.48;;;;;;;14.46;96.76;101735.34;5116530;28;20062;-45
2022/07/24 01:40:11;;;;;;;33.60;25.48;;;;;;;14.48;97.21;101738.84;5115531;28;20016;-45
2022/07/24 01:42:36;;;;;;;33.20;24.88;;;;;;;14.53;97.60;101736.41;5116202;28;20039;-44
2022/07/24 01:45:02;;;;;;;33.97;25.75;;;;;;;14.47;97.34;101737.13;5116430;28;20031;-43
2022/07/24 01:47:27;;;;;;;35.97;25.00;;;;;;;14.49;97.47;101747.53;5115393;28;20424;-46
2022/07/24 01:49:53;;;;;;;37.17;26.90;;;;;;;14.43;97.45;101737.84;5116441;28;20058;-41
2022/07/24 01:52:18;;;;;;;36.60;25.63;;;;;;;14.46;97.62;101737.94;5116121;28;20416;-42
2022/07/24 01:54:43;;;;;;;36.58;27.05;;;;;;;14.47;97.43;101738.81;5115529;28;20035;-44
2022/07/24 01:57:09;;;;;;;37.55;27.02;;;;;;;14.43;97.82;101735.25;5115973;28;20059;-43
2022/07/24 01:59:34;;;;;;;38.20;25.92;;;;;;;14.37;97.78;101729.03;5115851;28;20036;-44
2022/07/24 02:01:59;;;;;;;35.75;25.70;;;;;;;14.36;97.95;101728.16;5115231;28;20421;-45
2022/07/24 02:04:24;;;;;;;38.80;26.40;;;;;;;14.43;97.93;101739.56;5115677;28;20052;-44
2022/07/24 02:06:50;;;;;;;35.28;25.67;;;;;;;14.39;97.94;101741.19;5116152;28;20524;-46
2022/07/24 02:09:15;;;;;;;32.63;24.73;;;;;;;14.40;98.28;101735.19;5115031;28;20030;-45
2022/07/24 02:11:40;;;;;;;35.08;25.20;;;;;;;14.34;98.30;101732.41;5115833;28;20429;-44
2022/07/24 02:14:06;;;;;;;39.20;26.17;;;;;;;14.33;98.18;101738.41;5115635;28;20037;-45
2022/07/24 02:16:31;;;;;;;33.70;25.13;;;;;;;14.28;97.81;101740.91;5114914;28;20483;-43
2022/07/24 02:18:56;;;;;;;34.55;25.70;;;;;;;14.16;98.33;101746.63;5115691;28;20524;-46
2022/07/24 02:21:22;;;;;;;36.63;26.85;;;;;;;14.15;98.64;101742.25;5114642;28;20055;-43
2022/07/24 02:23:47;;;;;;;34.38;26.15;;;;;;;14.05;99.02;101745.41;5114796;28;20104;-44
2022/07/24 02:26:13;;;;;;;35.28;25.77;;;;;;;14.00;98.92;101741.81;5115394;28;20409;-43
2022/07/24 02:28:38;;;;;;;37.35;27.08;;;;;;;13.96;99.76;101734.78;5114850;28;20026;-44
2022/07/24 02:31:03;;;;;;;35.63;25.05;;;;;;;13.95;100.00;101733.03;5115478;28;20421;-46
2022/07/24 02:33:29;;;;;;;32.63;24.35;;;;;;;13.93;99.96;101735.56;5115237;28;20019;-45
2022/07/24 02:35:54;;;;;;;33.17;24.05;;;;;;;13.86;99.65;101736.19;5114756;28;20105;-46
2022/07/24 02:38:20;;;;;;;36.42;25.80;;;;;;;13.87;99.77;101737.09;5115130;28;20101;-46
2022/07/24 02:40:45;;;;;;;38.20;25.02;;;;;;;13.89;99.83;101730.25;5115496;28;20028;-46
2022/07/24 02:43:11;;;;;;;31.90;25.10;;;;;;;13.92;100.00;101732.94;5114523;28;20368;-44
2022/07/24 02:45:36;;;;;;;36.22;25.65;;;;;;;13.92;100.00;101732.94;5114985;28;20057;-45
2022/07/24 02:48:01;;;;;;;33.17;25.52;;;;;;;13.91;99.80;101738.94;5114969;28;20020;-43
2022/07/24 02:50:30;;;;;;;35.70;26.48;;;;;;;13.87;100.00;101743.16;5114342;28;20080;-46
2022/07/24 02:52:56;;;;;;;41.55;27.38;;;;;;;13.89;100.00;101748.38;5115321;28;20028;-45
2022/07/24 02:55:21;;;;;;;37.60;26.25;;;;;;;13.89;100.00;101750.97;5114820;28;20080;-44
2022/07/24 02:57:46;;;;;;;34.55;24.92;;;;;;;13.88;100.00;101749.19;5114269;28;20421;-45
2022/07/24 03:00:15;;;;;;;36.33;25.80;;;;;;;13.75;100.00;101745.34;5115058;28;20030;-42
2022/07/24 03:02:40;;;;;;;36.28;24.73;;;;;;;13.76;100.00;101737.66;5114834;28;20028;-46
2022/07/24 03:05:06;;;;;;;34.42;25.85;;;;;;;13.76;100.00;101742.84;5114173;28;20030;-45
2022/07/24 03:07:32;;;;;;;32.13;24.92;;;;;;;13.74;100.00;101741.91;5114540;28;20020;-45
2022/07/24 03:09:57;;;;;;;41.33;28.08;;;;;;;13.92;100.00;101739.00;5114737;28;20034;-45
2022/07/24 03:12:22;;;;;;;41.70;29.08;;;;;;;14.05;100.00;101737.66;5113518;28;20043;-45
2022/07/24 03:14:48;;;;;;;37.67;26.88;;;;;;;14.04;100.00;101733.28;5114514;28;20019;-46
2022/07/24 03:17:13;;;;;;;40.13;28.50;;;;;;;14.05;100.00;101731.59;5114127;28;20039;-46
2022/07/24 03:19:38;;;;;;;35.92;25.88;;;;;;;13.97;100.00;101736.53;5113880;28;20034;-46
2022/07/24 03:22:04;;;;;;;39.97;29.75;;;;;;;14.12;100.00;101730.91;5114634;28;20019;-45
2022/07/24 03:24:29;;;;;;;34.78;25.73;;;;;;;13.91;100.00;101732.03;5114089;28;20463;-42
2022/07/24 03:26:55;;;;;;;32.95;25.42;;;;;;;13.94;100.00;101723.47;5113977;28;20023;-45
2022/07/24 03:29:20;;;;;;;37.42;25.90;;;;;;;13.92;100.00;101725.16;5114123;28;20055;-45
2022/07/24 03:31:46;;;;;;;38.83;29.23;;;;;;;14.06;100.00;101734.22;5113396;28;20016;-42
2022/07/24 03:34:11;;;;;;;35.72;27.73;;;;;;;13.91;100.00;101728.59;5114170;28;20039;-43
2022/07/24 03:36:36;;;;;;;32.53;24.88;;;;;;;13.89;100.00;101735.41;5114074;28;20381;-45
2022/07/24 03:39:02;;;;;;;35.58;26.27;;;;;;;13.82;100.00;101735.22;5113126;28;20086;-44
2022/07/24 03:41:27;;;;;;;34.75;26.88;;;;;;;13.83;100.00;101738.72;5113950;28;20019;-42
2022/07/24 03:43:52;;;;;;;38.47;28.65;;;;;;;13.90;100.00;101732.00;5114201;28;20085;-47
2022/07/24 03:46:18;;;;;;;46.65;31.70;;;;;;;14.05;100.00;101729.88;5112869;28;20526;-46
2022/07/24 03:48:43;;;;;;;37.22;27.65;;;;;;;13.99;100.00;101727.97;5114129;28;20026;-42
2022/07/24 03:51:08;;;;;;;37.78;27.60;;;;;;;13.97;100.00;101729.63;5114020;28;20028;-41
2022/07/24 03:53:33;;;;;;;43.95;29.83;;;;;;;13.96;100.00;101724.41;5113100;28;20019;-41
2022/07/24 03:55:59;;;;;;;53.95;37.75;;;;;;;14.08;100.00;101727.34;5113569;28;20028;-46
2022/07/24 03:58:24;;;;;;;48.00;36.00;;;;;;;14.11;100.00;101722.28;5113640;28;20024;-43
2022/07/24 04:00:49;;;;;;;44.60;33.60;;;;;;;14.08;100.00;101721.31;5112847;28;20023;-42
2022/07/24 04:03:15;;;;;;;45.80;32.70;;;;;;;14.00;100.00;101723.66;5113397;28;20149;-45
2022/07/24 04:05:40;;;;;;;53.13;38.35;;;;;;;14.14;100.00;101722.34;5113607;28;20032;-42
2022/07/24 04:08:05;;;;;;;48.25;35.05;;;;;;;14.09;100.00;101730.84;5112832;28;20107;-44
2022/07/24 04:10:30;;;;;;;56.53;40.25;;;;;;;14.19;100.00;101719.91;5113448;28;20034;-41
2022/07/24 04:12:56;;;;;;;62.03;42.92;;;;;;;14.30;100.00;101722.78;5113407;28;20066;-45
2022/07/24 04:15:21;;;;;;;70.18;47.13;;;;;;;14.45;100.00;101720.63;5112494;28;20051;-42
2022/07/24 04:17:46;;;;;;;68.78;46.67;;;;;;;14.54;100.00;101711.31;5113388;28;20036;-44
2022/07/24 04:20:12;;;;;;;70.80;47.55;;;;;;;14.62;100.00;101718.47;5113554;28;20031;-45
2022/07/24 04:22:38;;;;;;;73.88;46.92;;;;;;;14.67;100.00;101716.06;5112680;28;20035;-42
2022/07/24 04:25:03;;;;;;;69.80;46.53;;;;;;;14.78;100.00;101711.13;5113366;28;20071;-41
2022/07/24 04:27:29;;;;;;;71.10;45.92;;;;;;;14.86;100.00;101726.91;5113087;28;20065;-43
2022/07/24 04:29:54;;;;;;;70.88;45.22;;;;;;;14.86;100.00;101734.69;5112465;28;20039;-45
2022/07/24 04:32:19;;;;;;;72.05;45.30;;;;;;;14.91;100.00;101728.81;5112901;28;20032;-43
2022/07/24 04:34:45;;;;;;;70.65;45.38;;;;;;;14.90;100.00;101731.34;5113256;28;20490;-41
2022/07/24 04:37:10;;;;;;;60.78;43.65;;;;;;;14.94;100.00;101730.59;5112599;28;20039;-42
2022/07/24 04:39:35;;;;;;;64.15;45.60;;;;;;;14.97;100.00;101738.47;5113001;28;20028;-45
2022/07/24 04:42:00;;;;;;;63.90;46.22;;;;;;;14.98;100.00;101741.09;5112415;28;20023;-42
2022/07/24 04:44:26;;;;;;;74.97;48.05;;;;;;;15.00;100.00;101743.72;5113078;28;20463;-47
2022/07/24 04:46:51;;;;;;;68.88;46.45;;;;;;;15.01;100.00;101735.09;5115033;28;20034;-41
2022/07/24 04:49:16;;;;;;;67.57;46.42;;;;;;;15.03;100.00;101743.81;5116649;28;20107;-45
2022/07/24 04:51:42;;;;;;;74.22;48.65;;;;;;;15.05;100.00;101742.13;5117516;28;20024;-45
2022/07/24 04:54:07;;;;;;;73.03;47.40;;;;;;;15.05;100.00;101746.44;5117269;28;20024;-40
2022/07/24 04:56:32;;;;;;;72.85;48.67;;;;;;;15.10;100.00;101748.31;5116314;28;20475;-47
2022/07/24 04:58:58;;;;;;;77.60;49.17;;;;;;;15.14;100.00;101747.56;5117282;28;20402;-45
2022/07/24 05:01:24;;;;;;;74.80;47.83;;;;;;;15.15;100.00;101744.09;5116972;28;20068;-47
2022/07/24 05:03:49;;;;;;;74.78;49.47;;;;;;;15.20;99.88;101735.56;5116596;28;20027;-46
2022/07/24 05:06:14;;;;;;;71.25;49.10;;;;;;;15.25;99.83;101733.97;5117047;28;20034;-44
2022/07/24 05:08:40;;;;;;;71.65;50.50;;;;;;;15.29;99.38;101734.06;5117200;28;20051;-46
2022/07/24 05:11:05;;;;;;;73.03;48.90;;;;;;;15.35;99.02;101735.06;5116090;28;20038;-43
2022/07/24 05:13:30;;;;;;;84.63;51.72;;;;;;;15.40;98.95;101736.94;5116755;28;20031;-41
2022/07/24 05:15:56;;;;;;;90.18;54.67;;;;;;;15.44;98.97;101730.97;5116725;28;20471;-46
2022/07/24 05:18:21;;;;;;;83.30;55.08;;;;;;;15.50;98.56;101731.97;5115986;28;20031;-42
2022/07/24 05:20:46;;;;;;;90.88;55.00;;;;;;;15.56;98.63;101729.50;5116984;28;20039;-47
2022/07/24 05:23:11;;;;;;;84.78;56.15;;;;;;;15.60;98.28;101740.00;5116627;28;20023;-43
2022/07/24 05:25:37;;;;;;;85.85;56.60;;;;;;;15.72;98.49;101741.13;5115967;28;20032;-41
2022/07/24 05:28:02;;;;;;;92.80;58.10;;;;;;;15.78;98.33;101746.47;5116780;28;20035;-41
2022/07/24 05:30:28;;;;;;;87.07;55.92;;;;;;;15.85;97.79;101742.31;5116470;28;20406;-46
2022/07/24 05:32:53;;;;;;;82.65;53.95;;;;;;;15.93;97.55;101745.94;5115776;28;20041;-43
2022/07/24 05:35:18;;;;;;;85.53;56.53;;;;;;;16.02;97.23;101751.34;5116425;28;20023;-44
2022/07/24 05:37:44;;;;;;;95.07;57.67;;;;;;;16.11;97.26;101754.16;5116549;28;20093;-42
2022/07/24 05:40:10;;;;;;;83.85;56.10;;;;;;;16.19;96.32;101756.03;5115836;28;20450;-45
2022/07/24 05:42:35;;;;;;;85.03;55.38;;;;;;;16.25;95.72;101759.63;5116273;28;20027;-46
2022/07/24 05:45:00;;;;;;;94.70;57.10;;;;;;;16.34;95.50;101758.94;5116148;28;20019;-46
2022/07/24 05:47:26;;;;;;;79.88;53.55;;;;;;;16.41;95.82;101757.34;5115653;28;20042;-41
2022/07/24 05:49:51;;;;;;;91.50;55.60;;;;;;;16.49;95.10;101757.50;5116361;28;20023;-49
2022/07/24 05:52:16;;;;;;;94.60;56.63;;;;;;;16.54;95.28;101756.75;5115492;28;20427;-41
2022/07/24 05:54:41;;;;;;;86.45;55.78;;;;;;;16.66;94.83;101756.09;5116103;28;20031;-42
2022/07/24 05:57:07;;;;;;;90.00;55.95;;;;;;;16.72;94.63;101753.63;5115535;28;20394;-41
2022/07/24 05:59:32;;;;;;;80.03;54.72;;;;;;;16.78;93.68;101751.13;5114151;28;20072;-41
2022/07/24 06:01:59;;;;;;;84.68;51.83;;;;;;;16.88;93.69;101759.09;5115936;28;20043;-45
2022/07/24 06:04:25;;;;;;;91.18;52.78;;;;;;;16.97;92.25;101761.91;5115983;28;20047;-45
2022/07/24 06:06:50;;;;;;;82.38;51.47;;;;;;;17.07;91.88;101761.22;5115333;28;20055;-43
2022/07/24 06:09:15;;;;;;;82.72;50.67;;;;;;;17.12;90.66;101766.53;5115728;28;20443;-42
2022/07/24 06:11:41;;;;;;;74.20;48.50;;;;;;;17.16;89.76;101757.91;5115756;28;20051;-41
2022/07/24 06:14:06;;;;;;;81.22;47.70;;;;;;;17.26;89.49;101765.03;5114880;28;20028;-41
2022/07/24 06:16:31;;;;;;;73.13;48.67;;;;;;;17.34;89.21;101762.53;5115681;28;20031;-41
2022/07/24 06:18:56;;;;;;;69.30;44.67;;;;;;;17.38;87.79;101766.09;5115860;28;20024;-43
2022/07/24 06:21:22;;;;;;;67.60;42.72;;;;;;;17.46;86.82;101766.19;5114844;28;20049;-41
2022/07/24 06:23:47;;;;;;;65.18;42.95;;;;;;;17.54;86.58;101769.78;5115662;28;20024;-41
2022/07/24 06:26:13;;;;;;;62.42;39.90;;;;;;;17.68;86.43;101767.41;5115384;28;20023;-43
2022/07/24 06:28:38;;;;;;;63.10;41.33;;;;;;;17.67;83.59;101766.50;5114778;28;20038;-43
2022/07/24 06:31:03;;;;;;;58.10;37.42;;;;;;;17.77;83.45;101762.31;5115279;28;20031;-44
2022/07/24 06:33:29;;;;;;;63.05;38.17;;;;;;;17.84;82.47;101761.53;5115450;28;20077;-41
2022/07/24 06:35:54;;;;;;;54.65;37.45;;;;;;;17.92;81.35;101761.63;5114996;28;20374;-42
2022/07/24 06:38:19;;;;;;;56.33;34.63;;;;;;;18.00;80.74;101765.28;5115102;28;20028;-41
2022/07/24 06:40:44;;;;;;;53.13;33.67;;;;;;;18.14;79.78;101777.63;5115360;28;20020;-44
2022/07/24 06:43:10;;;;;;;48.58;32.33;;;;;;;18.19;77.84;101776.84;5114359;28;20157;-41
2022/07/24 06:45:36;;;;;;;46.53;30.02;;;;;;;18.26;78.45;101772.56;5115038;28;20140;-42
2022/07/24 06:48:02;;;;;;;50.13;32.38;;;;;;;18.42;78.92;101764.06;5115172;28;20027;-43
2022/07/24 06:50:27;;;;;;;48.05;30.15;;;;;;;18.50;78.96;101763.28;5114284;28;20019;-46
2022/07/24 06:52:52;;;;;;;45.25;29.92;;;;;;;18.63;76.85;101756.44;5115125;28;20471;-40
2022/07/24 06:55:18;;;;;;;44.38;27.80;;;;;;;18.67;75.77;101758.22;5114666;28;20082;-42
2022/07/24 06:57:43;;;;;;;46.50;29.35;;;;;;;18.72;76.13;101762.66;5114163;28;20023;-42
2022/07/24 07:00:10;;;;;;;40.97;27.52;;;;;;;18.86;76.63;101759.31;5114629;28;20023;-46
2022/07/24 07:02:36;;;;;;;40.07;26.83;;;;;;;18.99;74.46;101758.59;5113878;28;20024;-46
2022/07/24 07:05:02;;;;;;;42.42;25.02;;;;;;;19.05;73.11;101756.03;5114799;28;20535;-43
2022/07/24 07:07:27;;;;;;;35.83;22.90;;;;;;;19.14;72.77;101759.59;5114621;28;20532;-47
2022/07/24 07:09:52;;;;;;;35.30;22.83;;;;;;;19.24;73.52;101751.84;5113545;28;20020;-44
2022/07/24 07:12:18;;;;;;;32.20;20.50;;;;;;;19.29;70.83;101746.66;5114249;28;20105;-45
2022/07/24 07:14:43;;;;;;;27.75;19.30;;;;;;;19.45;70.95;101750.25;5114610;28;20015;-42
2022/07/24 07:17:08;;;;;;;32.10;19.05;;;;;;;19.53;69.87;101750.31;5113821;28;20527;-41
2022/07/24 07:19:34;;;;;;;28.00;17.63;;;;;;;19.69;68.83;101756.50;5114516;28;20034;-47
2022/07/24 07:21:59;;;;;;;25.92;16.45;;;;;;;19.91;69.40;101765.41;5114329;28;20066;-41
2022/07/24 07:24:24;;;;;;;24.52;16.75;;;;;;;19.94;66.69;101768.03;5113647;28;20027;-47
2022/07/24 07:26:49;;;;;;;23.08;15.45;;;;;;;20.10;67.43;101781.19;5114398;28;20027;-47
2022/07/24 07:29:15;;;;;;;25.48;14.80;;;;;;;20.26;66.43;101774.28;5113927;28;20378;-49
2022/07/24 07:31:40;;;;;;;21.00;12.68;;;;;;;20.28;63.65;101768.19;5113644;28;20024;-47
2022/07/24 07:34:05;;;;;;;20.90;12.05;;;;;;;20.46;63.28;101771.75;5114244;28;20023;-46
2022/07/24 07:36:31;;;;;;;17.20;11.80;;;;;;;20.56;62.97;101766.53;5114171;28;20058;-43
2022/07/24 07:38:57;;;;;;;19.27;12.63;;;;;;;20.58;60.70;101763.94;5113256;28;20114;-46
2022/07/24 07:41:23;;;;;;;18.20;11.43;;;;;;;20.61;60.60;101763.06;5113778;28;20030;-44
2022/07/24 07:43:48;;;;;;;16.48;10.50;;;;;;;20.69;60.93;101764.81;5113967;28;20068;-47
2022/07/24 07:46:14;;;;;;;14.13;10.15;;;;;;;20.81;61.14;101765.75;5112879;28;20023;-42
2022/07/24 07:48:40;;;;;;;14.05;9.38;;;;;;;20.98;60.62;101763.16;5114086;28;20019;-44
2022/07/24 07:51:05;;;;;;;16.23;9.02;;;;;;;21.11;57.70;101764.03;5113917;28;20482;-43
2022/07/24 07:53:31;;;;;;;14.55;8.13;;;;;;;21.28;56.65;101767.53;5112865;28;20063;-48
2022/07/24 07:55:56;;;;;;;11.32;7.95;;;;;;;21.35;55.62;101764.00;5113859;28;20031;-43
2022/07/24 07:58:26;;;;;;;12.48;7.00;;;;;;;21.42;56.30;101764.03;5113323;28;20386;-47
2022/07/24 08:00:51;;;;;;;12.50;7.07;;;;;;;21.42;56.43;101764.91;5113011;28;20459;-46
2022/07/24 08:03:17;;;;;;;9.60;6.20;;;;;;;21.50;54.93;101757.03;5113571;28;20031;-43
2022/07/24 08:05:42;;;;;;;13.30;6.50;;;;;;;21.69;55.54;101747.38;5113778;28;20051;-45
2022/07/24 08:08:07;;;;;;;10.43;5.90;;;;;;;21.85;54.38;101748.25;5112861;28;20035;-42
2022/07/24 08:10:33;;;;;;;8.25;5.60;;;;;;;21.87;53.67;101744.75;5113444;28;20110;-45
2022/07/24 08:12:58;;;;;;;8.38;5.38;;;;;;;21.90;53.17;101745.59;5112514;28;20040;-42
2022/07/24 08:15:23;;;;;;;7.25;5.10;;;;;;;21.95;53.91;101754.31;5113518;28;20429;-47
2022/07/24 08:17:53;;;;;;;10.75;5.10;;;;;;;22.06;52.89;101759.56;5113549;28;20051;-42
2022/07/24 08:20:19;;;;;;;7.18;4.60;;;;;;;22.23;53.71;101744.59;5112501;28;20098;-44
2022/07/24 08:22:45;;;;;;;8.45;5.00;;;;;;;22.24;52.84;101755.97;5113137;28;20031;-47
2022/07/24 08:25:10;;;;;;;8.25;4.47;;;;;;;22.45;54.00;101749.75;5113355;28;20024;-46
2022/07/24 08:27:36;;;;;;;7.78;4.75;;;;;;;22.46;51.40;101754.16;5112569;28;20031;-44
2022/07/24 08:30:03;;;;;;;8.63;4.60;;;;;;;22.55;51.03;101748.84;5113117;28;20484;-45
2022/07/24 08:32:29;;;;;;;6.72;4.22;;;;;;;22.60;50.62;101749.69;5113321;28;20024;-43
2022/07/24 08:34:54;;;;;;;5.28;3.70;;;;;;;22.67;51.06;101755.75;5112690;28;20028;-48
2022/07/24 08:37:20;;;;;;;6.47;4.35;;;;;;;22.78;50.57;101759.19;5113040;28;20111;-45
2022/07/24 08:39:46;;;;;;;8.45;4.45;;;;;;;22.85;51.04;101754.75;5113190;28;20031;-43
2022/07/24 08:42:11;;;;;;;6.20;3.65;;;;;;;22.90;51.02;101752.13;5112281;28;20019;-46
2022/07/24 08:44:38;;;;;;;8.38;4.75;;;;;;;23.10;51.96;101754.56;5113362;28;20028;-44
2022/07/24 08:47:06;;;;;;;6.85;4.55;;;;;;;23.19;52.41;101749.28;5113222;28;20024;-43
2022/07/24 08:49:33;;;;;;;8.48;5.00;;;;;;;23.20;51.14;101748.38;5112289;28;20077;-43
2022/07/24 08:52:00;;;;;;;9.05;5.07;;;;;;;23.22;51.58;101748.38;5113062;28;20038;-44
2022/07/24 08:54:25;;;;;;;11.13;4.70;;;;;;;23.30;51.30;101742.16;5112961;28;20088;-42
2022/07/24 08:56:50;;;;;;;11.43;4.60;;;;;;;23.38;50.42;101743.84;5112153;28;20051;-48
2022/07/24 08:59:21;;;;;;;5.22;3.78;;;;;;;23.54;50.63;101749.81;5113037;28;20055;-44
2022/07/24 09:01:50;;;;;;;8.32;4.53;;;;;;;23.59;50.36;101743.63;5113131;28;20043;-48
2022/07/24 09:04:36;;;;;;;5.95;4.00;;;;;;;23.70;51.80;101751.41;5112058;28;20024;-48
2022/07/24 09:07:05;;;;;;;6.53;4.15;;;;;;;23.88;50.50;101744.22;5112871;28;20028;-48
2022/07/24 09:09:30;;;;;;;8.23;4.43;;;;;;;23.93;49.59;101750.31;5112345;28;20023;-43
2022/07/24 09:12:13;;;;;;;7.10;4.15;;;;;;;24.11;51.36;101752.72;5112914;28;20040;-47
2022/07/24 09:14:40;;;;;;;6.80;4.10;;;;;;;24.18;50.64;101742.97;5113093;28;20024;-46
2022/07/24 09:17:07;;;;;;;;;;;;;;;24.27;51.32;101741.97;5112483;28;20160;-47
2022/07/24 09:19:59;;;;;;;7.30;4.80;;;;;;;24.36;50.96;101736.59;5112742;28;20493;-46
2022/07/24 09:22:36;;;;;;;7.80;5.03;;;;;;;24.44;49.43;101745.28;5112904;28;20031;-45
2022/07/24 09:25:25;;;;;;;7.70;4.93;;;;;;;24.42;48.90;101735.66;5112084;28;20030;-47
2022/07/24 09:27:58;;;;;;;7.00;4.60;;;;;;;24.43;50.33;101734.75;5112759;28;20023;-47
2022/07/24 09:30:36;;;;;;;8.80;4.95;;;;;;;24.52;50.42;101736.38;5112063;28;20030;-47
